sensor_id;sensor_type;location;lat;lon;timestamp;temperature;humidity
3994;DHT22;2011;48.238;13.948;2022-10-03T00:00:56;12.30;99.90
3994;DHT22;2011;48.238;13.948;2022-10-03T00:03:33;12.30;99.90
3994;DHT22;2011;48.238;13.948;2022-10-03T00:06:11;12.20;99.90
3994;DHT22;2011;48.238;13.948;2022-10-03T00:08:59;12.20;99.90
3994;DHT22;2011;48.238;13.948;2022-10-03T00:11:41;12.30;99.90
3994;DHT22;2011;48.238;13.948;2022-10-03T00:14:16;12.20;99.90
3994;DHT22;2011;48.238;13.948;2022-10-03T00:16:51;12.20;99.90
3994;DHT22;2011;48.238;13.948;2022-10-03T00:19:25;12.30;99.90
3994;DHT22;2011;48.238;13.948;2022-10-03T00:22:05;12.20;99.90
3994;DHT22;2011;48.238;13.948;2022-10-03T00:24:44;12.10;99.90
3994;DHT22;2011;48.238;13.948;2022-10-03T00:27:24;12.10;99.90
3994;DHT22;2011;48.238;13.948;2022-10-03T00:30:01;12.10;99.90
3994;DHT22;2011;48.238;13.948;2022-10-03T00:32:44;12.10;99.90
3994;DHT22;2011;48.238;13.948;2022-10-03T00:35:29;12.10;99.90
3994;DHT22;2011;48.238;13.948;2022-10-03T00:38:19;12.00;99.90
3994;DHT22;2011;48.238;13.948;2022-10-03T00:41:21;12.10;99.90
3994;DHT22;2011;48.238;13.948;2022-10-03T00:44:25;12.00;99.90
3994;DHT22;2011;48.238;13.948;2022-10-03T00:47:15;12.10;99.90
3994;DHT22;2011;48.238;13.948;2022-10-03T00:50:10;12.10;99.90
3994;DHT22;2011;48.238;13.948;2022-10-03T00:52:57;12.10;99.90
3994;DHT22;2011;48.238;13.948;2022-10-03T00:55:38;12.00;99.90
3994;DHT22;2011;48.238;13.948;2022-10-03T00:58:24;12.00;99.90
3994;DHT22;2011;48.238;13.948;2022-10-03T01:01:02;12.00;99.90
3994;DHT22;2011;48.238;13.948;2022-10-03T01:03:54;12.00;99.90
3994;DHT22;2011;48.238;13.948;2022-10-03T01:06:33;12.00;99.90
3994;DHT22;2011;48.238;13.948;2022-10-03T01:09:17;12.00;99.90
3994;DHT22;2011;48.238;13.948;2022-10-03T01:11:57;11.90;99.90
3994;DHT22;2011;48.238;13.948;2022-10-03T01:15:02;11.90;99.90
3994;DHT22;2011;48.238;13.948;2022-10-03T01:17:41;11.90;99.90
3994;DHT22;2011;48.238;13.948;2022-10-03T01:20:27;11.90;99.90
3994;DHT22;2011;48.238;13.948;2022-10-03T01:23:24;11.90;99.90
3994;DHT22;2011;48.238;13.948;2022-10-03T01:26:08;11.90;99.90
3994;DHT22;2011;48.238;13.948;2022-10-03T01:28:46;11.90;99.90
3994;DHT22;2011;48.238;13.948;2022-10-03T01:31:40;11.90;99.90
3994;DHT22;2011;48.238;13.948;2022-10-03T01:34:16;11.90;99.90
3994;DHT22;2011;48.238;13.948;2022-10-03T01:36:53;11.90;99.90
3994;DHT22;2011;48.238;13.948;2022-10-03T01:39:31;11.90;99.90
3994;DHT22;2011;48.238;13.948;2022-10-03T01:42:04;11.90;99.90
3994;DHT22;2011;48.238;13.948;2022-10-03T01:44:43;11.90;99.90
3994;DHT22;2011;48.238;13.948;2022-10-03T01:47:22;11.90;99.90
3994;DHT22;2011;48.238;13.948;2022-10-03T01:49:55;11.90;99.90
3994;DHT22;2011;48.238;13.948;2022-10-03T01:52:35;11.90;99.90
3994;DHT22;2011;48.238;13.948;2022-10-03T01:55:07;11.90;99.90
3994;DHT22;2011;48.238;13.948;2022-10-03T01:57:43;11.90;99.90
3994;DHT22;2011;48.238;13.948;2022-10-03T02:00:16;11.90;99.90
3994;DHT22;2011;48.238;13.948;2022-10-03T02:02:46;11.90;99.90
3994;DHT22;2011;48.238;13.948;2022-10-03T02:05:21;11.80;99.90
3994;DHT22;2011;48.238;13.948;2022-10-03T02:07:58;11.80;99.90
3994;DHT22;2011;48.238;13.948;2022-10-03T02:10:37;11.80;99.90
3994;DHT22;2011;48.238;13.948;2022-10-03T02:13:11;11.70;99.90
3994;DHT22;2011;48.238;13.948;2022-10-03T02:15:51;11.70;99.90
3994;DHT22;2011;48.238;13.948;2022-10-03T02:18:28;11.70;99.90
3994;DHT22;2011;48.238;13.948;2022-10-03T02:21:06;11.70;99.90
3994;DHT22;2011;48.238;13.948;2022-10-03T02:23:40;11.60;99.90
3994;DHT22;2011;48.238;13.948;2022-10-03T02:29:30;11.60;99.90
3994;DHT22;2011;48.238;13.948;2022-10-03T02:35:20;11.60;99.90
3994;DHT22;2011;48.238;13.948;2022-10-03T02:38:11;11.50;99.90
3994;DHT22;2011;48.238;13.948;2022-10-03T02:41:15;11.50;99.90
3994;DHT22;2011;48.238;13.948;2022-10-03T02:50:37;11.50;99.90
3994;DHT22;2011;48.238;13.948;2022-10-03T02:56:40;11.50;99.90
3994;DHT22;2011;48.238;13.948;2022-10-03T02:59:55;11.50;99.90
3994;DHT22;2011;48.238;13.948;2022-10-03T03:03:00;11.50;99.90
3994;DHT22;2011;48.238;13.948;2022-10-03T03:05:57;11.50;99.90
3994;DHT22;2011;48.238;13.948;2022-10-03T03:08:41;11.40;99.90
3994;DHT22;2011;48.238;13.948;2022-10-03T03:14:53;11.30;99.90
3994;DHT22;2011;48.238;13.948;2022-10-03T03:17:31;11.30;99.90
3994;DHT22;2011;48.238;13.948;2022-10-03T03:20:15;11.30;99.90
3994;DHT22;2011;48.238;13.948;2022-10-03T03:23:09;11.40;99.90
3994;DHT22;2011;48.238;13.948;2022-10-03T03:25:51;11.40;99.90
3994;DHT22;2011;48.238;13.948;2022-10-03T03:28:32;11.40;99.90
3994;DHT22;2011;48.238;13.948;2022-10-03T03:31:08;11.40;99.90
3994;DHT22;2011;48.238;13.948;2022-10-03T03:33:49;11.40;99.90
3994;DHT22;2011;48.238;13.948;2022-10-03T03:36:28;11.40;99.90
3994;DHT22;2011;48.238;13.948;2022-10-03T03:39:10;11.50;99.90
3994;DHT22;2011;48.238;13.948;2022-10-03T03:41:55;11.50;99.90
3994;DHT22;2011;48.238;13.948;2022-10-03T03:44:46;11.50;99.90
3994;DHT22;2011;48.238;13.948;2022-10-03T03:47:40;11.50;99.90
3994;DHT22;2011;48.238;13.948;2022-10-03T03:50:30;11.50;99.90
3994;DHT22;2011;48.238;13.948;2022-10-03T03:53:17;11.50;99.90
3994;DHT22;2011;48.238;13.948;2022-10-03T03:56:14;11.50;99.90
3994;DHT22;2011;48.238;13.948;2022-10-03T03:58:48;11.50;99.90
3994;DHT22;2011;48.238;13.948;2022-10-03T04:01:47;11.50;99.90
3994;DHT22;2011;48.238;13.948;2022-10-03T04:04:30;11.50;99.90
3994;DHT22;2011;48.238;13.948;2022-10-03T04:07:11;11.50;99.90
3994;DHT22;2011;48.238;13.948;2022-10-03T04:09:57;11.50;99.90
3994;DHT22;2011;48.238;13.948;2022-10-03T04:15:39;11.50;99.90
3994;DHT22;2011;48.238;13.948;2022-10-03T04:18:21;11.50;99.90
3994;DHT22;2011;48.238;13.948;2022-10-03T04:21:30;11.50;99.90
3994;DHT22;2011;48.238;13.948;2022-10-03T04:24:21;11.50;99.90
3994;DHT22;2011;48.238;13.948;2022-10-03T04:27:03;11.50;99.90
3994;DHT22;2011;48.238;13.948;2022-10-03T04:29:45;11.50;99.90
3994;DHT22;2011;48.238;13.948;2022-10-03T04:32:31;11.40;99.90
3994;DHT22;2011;48.238;13.948;2022-10-03T04:35:15;11.40;99.90
3994;DHT22;2011;48.238;13.948;2022-10-03T04:37:53;11.40;99.90
3994;DHT22;2011;48.238;13.948;2022-10-03T04:40:27;11.40;99.90
3994;DHT22;2011;48.238;13.948;2022-10-03T04:43:06;11.40;99.90
3994;DHT22;2011;48.238;13.948;2022-10-03T04:45:52;11.40;99.90
3994;DHT22;2011;48.238;13.948;2022-10-03T04:48:28;11.40;99.90
3994;DHT22;2011;48.238;13.948;2022-10-03T04:51:05;11.40;99.90
3994;DHT22;2011;48.238;13.948;2022-10-03T04:53:41;11.40;99.90
3994;DHT22;2011;48.238;13.948;2022-10-03T04:59:07;11.40;99.90
3994;DHT22;2011;48.238;13.948;2022-10-03T05:01:43;11.40;99.90
3994;DHT22;2011;48.238;13.948;2022-10-03T05:04:23;11.40;99.90
3994;DHT22;2011;48.238;13.948;2022-10-03T05:07:00;11.40;99.90
3994;DHT22;2011;48.238;13.948;2022-10-03T05:09:38;11.40;99.90
3994;DHT22;2011;48.238;13.948;2022-10-03T05:12:14;11.40;99.90
3994;DHT22;2011;48.238;13.948;2022-10-03T05:14:57;11.40;99.90
3994;DHT22;2011;48.238;13.948;2022-10-03T05:17:34;11.40;99.90
3994;DHT22;2011;48.238;13.948;2022-10-03T05:20:32;11.30;99.90
3994;DHT22;2011;48.238;13.948;2022-10-03T05:23:11;11.30;99.90
3994;DHT22;2011;48.238;13.948;2022-10-03T05:25:51;11.40;99.90
3994;DHT22;2011;48.238;13.948;2022-10-03T05:28:31;11.40;99.90
3994;DHT22;2011;48.238;13.948;2022-10-03T05:31:11;11.40;99.90
3994;DHT22;2011;48.238;13.948;2022-10-03T05:33:46;11.40;99.90
3994;DHT22;2011;48.238;13.948;2022-10-03T05:36:25;11.40;99.90
3994;DHT22;2011;48.238;13.948;2022-10-03T05:39:26;11.40;99.90
3994;DHT22;2011;48.238;13.948;2022-10-03T05:42:02;11.40;99.90
3994;DHT22;2011;48.238;13.948;2022-10-03T05:44:40;11.40;99.90
3994;DHT22;2011;48.238;13.948;2022-10-03T05:47:11;11.40;99.90
3994;DHT22;2011;48.238;13.948;2022-10-03T05:50:13;11.30;99.90
3994;DHT22;2011;48.238;13.948;2022-10-03T05:53:00;11.40;99.90
3994;DHT22;2011;48.238;13.948;2022-10-03T05:55:45;11.40;99.90
3994;DHT22;2011;48.238;13.948;2022-10-03T05:58:33;11.40;99.90
3994;DHT22;2011;48.238;13.948;2022-10-03T06:01:29;11.40;99.90
3994;DHT22;2011;48.238;13.948;2022-10-03T06:04:22;11.40;99.90
3994;DHT22;2011;48.238;13.948;2022-10-03T06:07:07;11.40;99.90
3994;DHT22;2011;48.238;13.948;2022-10-03T06:10:17;11.40;99.90
3994;DHT22;2011;48.238;13.948;2022-10-03T06:13:03;11.40;99.90
3994;DHT22;2011;48.238;13.948;2022-10-03T06:15:47;11.50;99.90
3994;DHT22;2011;48.238;13.948;2022-10-03T06:18:44;11.50;99.90
3994;DHT22;2011;48.238;13.948;2022-10-03T06:30:21;11.50;99.90
3994;DHT22;2011;48.238;13.948;2022-10-03T06:39:49;11.70;99.90
3994;DHT22;2011;48.238;13.948;2022-10-03T06:42:35;11.70;99.90
3994;DHT22;2011;48.238;13.948;2022-10-03T06:48:33;11.70;99.90
3994;DHT22;2011;48.238;13.948;2022-10-03T06:54:56;11.80;99.90
3994;DHT22;2011;48.238;13.948;2022-10-03T06:57:46;11.80;99.90
3994;DHT22;2011;48.238;13.948;2022-10-03T07:00:20;11.80;99.90
3994;DHT22;2011;48.238;13.948;2022-10-03T07:03:26;11.70;99.90
3994;DHT22;2011;48.238;13.948;2022-10-03T07:06:19;11.80;99.90
3994;DHT22;2011;48.238;13.948;2022-10-03T07:15:12;11.80;99.90
3994;DHT22;2011;48.238;13.948;2022-10-03T07:17:51;11.90;99.90
3994;DHT22;2011;48.238;13.948;2022-10-03T07:23:51;11.90;99.90
3994;DHT22;2011;48.238;13.948;2022-10-03T07:26:47;11.90;99.90
3994;DHT22;2011;48.238;13.948;2022-10-03T07:29:23;12.00;99.90
3994;DHT22;2011;48.238;13.948;2022-10-03T07:32:09;12.10;99.90
3994;DHT22;2011;48.238;13.948;2022-10-03T07:37:56;12.00;99.90
3994;DHT22;2011;48.238;13.948;2022-10-03T07:41:19;12.00;99.90
3994;DHT22;2011;48.238;13.948;2022-10-03T07:44:09;12.10;99.90
3994;DHT22;2011;48.238;13.948;2022-10-03T07:47:08;12.30;99.90
3994;DHT22;2011;48.238;13.948;2022-10-03T07:50:22;12.50;99.90
3994;DHT22;2011;48.238;13.948;2022-10-03T07:53:07;12.90;99.90
3994;DHT22;2011;48.238;13.948;2022-10-03T07:55:57;12.90;99.90
3994;DHT22;2011;48.238;13.948;2022-10-03T08:04:43;13.00;99.90
3994;DHT22;2011;48.238;13.948;2022-10-03T08:07:40;12.80;99.90
3994;DHT22;2011;48.238;13.948;2022-10-03T08:10:38;12.70;99.90
3994;DHT22;2011;48.238;13.948;2022-10-03T08:13:25;12.70;99.90
3994;DHT22;2011;48.238;13.948;2022-10-03T08:16:10;12.70;99.90
3994;DHT22;2011;48.238;13.948;2022-10-03T08:22:04;12.50;99.90
3994;DHT22;2011;48.238;13.948;2022-10-03T08:24:58;12.30;99.90
3994;DHT22;2011;48.238;13.948;2022-10-03T08:27:43;12.30;99.90
3994;DHT22;2011;48.238;13.948;2022-10-03T08:30:20;12.30;99.90
3994;DHT22;2011;48.238;13.948;2022-10-03T08:33:27;12.20;99.90
3994;DHT22;2011;48.238;13.948;2022-10-03T08:36:33;12.20;99.90
3994;DHT22;2011;48.238;13.948;2022-10-03T08:39:12;12.20;99.90
3994;DHT22;2011;48.238;13.948;2022-10-03T08:45:45;12.30;99.90
3994;DHT22;2011;48.238;13.948;2022-10-03T08:48:55;12.40;99.90
3994;DHT22;2011;48.238;13.948;2022-10-03T08:52:04;12.50;99.90
3994;DHT22;2011;48.238;13.948;2022-10-03T09:00:56;12.80;99.90
3994;DHT22;2011;48.238;13.948;2022-10-03T09:06:54;13.00;99.90
3994;DHT22;2011;48.238;13.948;2022-10-03T09:09:52;13.00;99.90
3994;DHT22;2011;48.238;13.948;2022-10-03T09:16:09;13.20;99.90
3994;DHT22;2011;48.238;13.948;2022-10-03T09:18:59;13.30;99.90
3994;DHT22;2011;48.238;13.948;2022-10-03T09:21:44;13.40;99.90
3994;DHT22;2011;48.238;13.948;2022-10-03T09:24:43;13.50;99.90
3994;DHT22;2011;48.238;13.948;2022-10-03T09:30:40;13.60;99.90
3994;DHT22;2011;48.238;13.948;2022-10-03T09:40:03;13.10;99.90
3994;DHT22;2011;48.238;13.948;2022-10-03T09:42:54;13.00;99.90
3994;DHT22;2011;48.238;13.948;2022-10-03T09:48:25;13.00;99.90
3994;DHT22;2011;48.238;13.948;2022-10-03T09:51:18;13.10;99.90
3994;DHT22;2011;48.238;13.948;2022-10-03T09:57:11;13.20;99.90
3994;DHT22;2011;48.238;13.948;2022-10-03T10:00:06;13.20;99.90
3994;DHT22;2011;48.238;13.948;2022-10-03T10:06:11;13.20;99.90
3994;DHT22;2011;48.238;13.948;2022-10-03T10:09:10;13.30;99.90
3994;DHT22;2011;48.238;13.948;2022-10-03T10:12:01;13.60;99.90
3994;DHT22;2011;48.238;13.948;2022-10-03T10:18:00;14.20;99.90
3994;DHT22;2011;48.238;13.948;2022-10-03T10:23:48;14.20;99.90
3994;DHT22;2011;48.238;13.948;2022-10-03T10:26:47;13.90;99.90
3994;DHT22;2011;48.238;13.948;2022-10-03T10:29:34;13.90;99.90
3994;DHT22;2011;48.238;13.948;2022-10-03T10:32:27;14.00;99.90
3994;DHT22;2011;48.238;13.948;2022-10-03T10:38:23;13.80;99.90
3994;DHT22;2011;48.238;13.948;2022-10-03T11:06:06;14.50;99.90
3994;DHT22;2011;48.238;13.948;2022-10-03T11:18:13;14.20;99.90
3994;DHT22;2011;48.238;13.948;2022-10-03T11:24:27;14.50;99.90
3994;DHT22;2011;48.238;13.948;2022-10-03T11:27:19;14.40;99.90
3994;DHT22;2011;48.238;13.948;2022-10-03T11:30:12;14.40;99.90
3994;DHT22;2011;48.238;13.948;2022-10-03T11:36:09;15.00;99.90
3994;DHT22;2011;48.238;13.948;2022-10-03T11:38:47;15.20;99.90
3994;DHT22;2011;48.238;13.948;2022-10-03T11:41:24;15.00;99.90
3994;DHT22;2011;48.238;13.948;2022-10-03T11:44:14;14.90;99.90
3994;DHT22;2011;48.238;13.948;2022-10-03T11:49:58;14.50;99.90
3994;DHT22;2011;48.238;13.948;2022-10-03T11:52:34;14.50;99.90
3994;DHT22;2011;48.238;13.948;2022-10-03T11:55:19;14.70;99.90
3994;DHT22;2011;48.238;13.948;2022-10-03T11:57:59;15.00;99.90
3994;DHT22;2011;48.238;13.948;2022-10-03T12:00:32;15.40;99.90
3994;DHT22;2011;48.238;13.948;2022-10-03T12:03:15;15.50;99.90
3994;DHT22;2011;48.238;13.948;2022-10-03T12:05:49;15.50;99.90
3994;DHT22;2011;48.238;13.948;2022-10-03T12:08:42;15.30;99.90
3994;DHT22;2011;48.238;13.948;2022-10-03T12:11:24;15.00;99.90
3994;DHT22;2011;48.238;13.948;2022-10-03T12:14:10;15.20;99.90
3994;DHT22;2011;48.238;13.948;2022-10-03T12:16:52;15.40;99.90
3994;DHT22;2011;48.238;13.948;2022-10-03T12:19:27;15.60;99.90
3994;DHT22;2011;48.238;13.948;2022-10-03T12:22:01;15.70;99.90
3994;DHT22;2011;48.238;13.948;2022-10-03T12:24:36;15.90;99.90
3994;DHT22;2011;48.238;13.948;2022-10-03T12:27:15;16.00;99.90
3994;DHT22;2011;48.238;13.948;2022-10-03T12:29:53;15.70;99.90
3994;DHT22;2011;48.238;13.948;2022-10-03T12:32:30;15.50;99.90
3994;DHT22;2011;48.238;13.948;2022-10-03T12:35:11;15.30;99.90
3994;DHT22;2011;48.238;13.948;2022-10-03T12:37:45;15.20;99.90
3994;DHT22;2011;48.238;13.948;2022-10-03T12:40:22;15.00;99.90
3994;DHT22;2011;48.238;13.948;2022-10-03T12:43:01;14.80;99.90
3994;DHT22;2011;48.238;13.948;2022-10-03T12:45:35;14.80;99.90
3994;DHT22;2011;48.238;13.948;2022-10-03T12:48:20;14.90;99.90
3994;DHT22;2011;48.238;13.948;2022-10-03T12:50:53;15.00;99.90
3994;DHT22;2011;48.238;13.948;2022-10-03T12:53:33;14.90;99.90
3994;DHT22;2011;48.238;13.948;2022-10-03T12:56:16;14.80;99.90
3994;DHT22;2011;48.238;13.948;2022-10-03T12:58:56;14.70;99.90
3994;DHT22;2011;48.238;13.948;2022-10-03T13:01:39;14.70;99.90
3994;DHT22;2011;48.238;13.948;2022-10-03T13:04:19;14.80;99.90
3994;DHT22;2011;48.238;13.948;2022-10-03T13:07:02;14.90;99.90
3994;DHT22;2011;48.238;13.948;2022-10-03T13:09:56;14.80;99.90
3994;DHT22;2011;48.238;13.948;2022-10-03T13:12:34;14.70;99.90
3994;DHT22;2011;48.238;13.948;2022-10-03T13:15:33;14.70;99.90
3994;DHT22;2011;48.238;13.948;2022-10-03T13:18:14;14.60;99.90
3994;DHT22;2011;48.238;13.948;2022-10-03T13:20:49;14.70;99.90
3994;DHT22;2011;48.238;13.948;2022-10-03T13:23:23;14.70;99.90
3994;DHT22;2011;48.238;13.948;2022-10-03T13:26:02;14.70;99.90
3994;DHT22;2011;48.238;13.948;2022-10-03T13:28:47;14.80;99.90
3994;DHT22;2011;48.238;13.948;2022-10-03T13:31:21;15.00;99.90
3994;DHT22;2011;48.238;13.948;2022-10-03T13:33:51;15.40;99.90
3994;DHT22;2011;48.238;13.948;2022-10-03T13:36:23;15.60;99.90
3994;DHT22;2011;48.238;13.948;2022-10-03T13:39:05;15.50;99.90
3994;DHT22;2011;48.238;13.948;2022-10-03T13:42:06;15.30;99.90
3994;DHT22;2011;48.238;13.948;2022-10-03T13:44:38;15.20;99.90
3994;DHT22;2011;48.238;13.948;2022-10-03T13:47:19;15.10;99.90
3994;DHT22;2011;48.238;13.948;2022-10-03T13:49:51;15.30;99.90
3994;DHT22;2011;48.238;13.948;2022-10-03T13:52:24;15.50;99.90
3994;DHT22;2011;48.238;13.948;2022-10-03T13:55:17;15.40;99.90
3994;DHT22;2011;48.238;13.948;2022-10-03T14:00:53;14.90;99.90
3994;DHT22;2011;48.238;13.948;2022-10-03T14:03:26;14.90;99.90
3994;DHT22;2011;48.238;13.948;2022-10-03T14:06:02;14.80;99.90
3994;DHT22;2011;48.238;13.948;2022-10-03T14:09:10;14.80;99.90
3994;DHT22;2011;48.238;13.948;2022-10-03T14:11:48;14.80;99.90
3994;DHT22;2011;48.238;13.948;2022-10-03T14:14:46;14.70;99.90
3994;DHT22;2011;48.238;13.948;2022-10-03T14:17:21;14.70;99.90
3994;DHT22;2011;48.238;13.948;2022-10-03T14:20:04;14.70;99.90
3994;DHT22;2011;48.238;13.948;2022-10-03T14:22:44;14.60;99.90
3994;DHT22;2011;48.238;13.948;2022-10-03T14:25:23;14.60;99.90
3994;DHT22;2011;48.238;13.948;2022-10-03T14:27:53;14.60;99.90
3994;DHT22;2011;48.238;13.948;2022-10-03T14:30:25;14.70;99.90
3994;DHT22;2011;48.238;13.948;2022-10-03T14:33:01;14.60;99.90
3994;DHT22;2011;48.238;13.948;2022-10-03T14:35:38;14.60;99.90
3994;DHT22;2011;48.238;13.948;2022-10-03T14:38:43;14.60;99.90
3994;DHT22;2011;48.238;13.948;2022-10-03T14:41:40;14.50;99.90
3994;DHT22;2011;48.238;13.948;2022-10-03T14:44:11;14.40;99.90
3994;DHT22;2011;48.238;13.948;2022-10-03T14:46:43;14.40;99.90
3994;DHT22;2011;48.238;13.948;2022-10-03T14:49:18;14.30;99.90
3994;DHT22;2011;48.238;13.948;2022-10-03T14:51:48;14.30;99.90
3994;DHT22;2011;48.238;13.948;2022-10-03T14:54:19;14.20;99.90
3994;DHT22;2011;48.238;13.948;2022-10-03T14:56:48;14.20;99.90
3994;DHT22;2011;48.238;13.948;2022-10-03T14:59:24;14.20;99.90
3994;DHT22;2011;48.238;13.948;2022-10-03T15:01:55;14.20;99.90
3994;DHT22;2011;48.238;13.948;2022-10-03T15:04:31;14.20;99.90
3994;DHT22;2011;48.238;13.948;2022-10-03T15:07:00;14.30;99.90
3994;DHT22;2011;48.238;13.948;2022-10-03T15:09:39;14.30;99.90
3994;DHT22;2011;48.238;13.948;2022-10-03T15:12:10;14.30;99.90
3994;DHT22;2011;48.238;13.948;2022-10-03T15:14:43;14.20;99.90
3994;DHT22;2011;48.238;13.948;2022-10-03T15:17:18;14.20;99.90
3994;DHT22;2011;48.238;13.948;2022-10-03T15:19:51;14.20;99.90
3994;DHT22;2011;48.238;13.948;2022-10-03T15:22:28;14.20;99.90
3994;DHT22;2011;48.238;13.948;2022-10-03T15:25:00;14.20;99.90
3994;DHT22;2011;48.238;13.948;2022-10-03T15:27:29;14.20;99.90
3994;DHT22;2011;48.238;13.948;2022-10-03T15:29:57;14.20;99.90
3994;DHT22;2011;48.238;13.948;2022-10-03T15:32:30;14.20;99.90
3994;DHT22;2011;48.238;13.948;2022-10-03T15:35:00;14.20;99.90
3994;DHT22;2011;48.238;13.948;2022-10-03T15:37:30;14.20;99.90
3994;DHT22;2011;48.238;13.948;2022-10-03T15:40:04;14.20;99.90
3994;DHT22;2011;48.238;13.948;2022-10-03T15:42:44;14.00;99.90
3994;DHT22;2011;48.238;13.948;2022-10-03T15:45:19;14.00;99.90
3994;DHT22;2011;48.238;13.948;2022-10-03T15:47:48;14.00;99.90
3994;DHT22;2011;48.238;13.948;2022-10-03T15:50:20;14.00;99.90
3994;DHT22;2011;48.238;13.948;2022-10-03T15:52:50;14.00;99.90
3994;DHT22;2011;48.238;13.948;2022-10-03T15:55:22;13.90;99.90
3994;DHT22;2011;48.238;13.948;2022-10-03T15:57:53;13.90;99.90
3994;DHT22;2011;48.238;13.948;2022-10-03T16:00:27;13.90;99.90
3994;DHT22;2011;48.238;13.948;2022-10-03T16:03:03;13.90;99.90
3994;DHT22;2011;48.238;13.948;2022-10-03T16:05:35;13.90;99.90
3994;DHT22;2011;48.238;13.948;2022-10-03T16:08:06;13.90;99.90
3994;DHT22;2011;48.238;13.948;2022-10-03T16:10:38;13.80;99.90
3994;DHT22;2011;48.238;13.948;2022-10-03T16:13:17;13.80;99.90
3994;DHT22;2011;48.238;13.948;2022-10-03T16:18:51;13.70;99.90
3994;DHT22;2011;48.238;13.948;2022-10-03T16:21:30;13.70;99.90
3994;DHT22;2011;48.238;13.948;2022-10-03T16:24:00;13.70;99.90
3994;DHT22;2011;48.238;13.948;2022-10-03T16:26:30;13.70;99.90
3994;DHT22;2011;48.238;13.948;2022-10-03T16:29:05;13.70;99.90
3994;DHT22;2011;48.238;13.948;2022-10-03T16:31:38;13.60;99.90
3994;DHT22;2011;48.238;13.948;2022-10-03T16:34:11;13.60;99.90
3994;DHT22;2011;48.238;13.948;2022-10-03T16:36:43;13.60;99.90
3994;DHT22;2011;48.238;13.948;2022-10-03T16:39:18;13.60;99.90
3994;DHT22;2011;48.238;13.948;2022-10-03T16:41:46;13.60;99.90
3994;DHT22;2011;48.238;13.948;2022-10-03T16:44:22;13.60;99.90
3994;DHT22;2011;48.238;13.948;2022-10-03T16:46:50;13.50;99.90
3994;DHT22;2011;48.238;13.948;2022-10-03T16:49:33;13.50;99.90
3994;DHT22;2011;48.238;13.948;2022-10-03T16:52:22;13.40;99.90
3994;DHT22;2011;48.238;13.948;2022-10-03T16:54:58;13.40;99.90
3994;DHT22;2011;48.238;13.948;2022-10-03T16:57:30;13.30;99.90
3994;DHT22;2011;48.238;13.948;2022-10-03T16:59:58;13.30;99.90
3994;DHT22;2011;48.238;13.948;2022-10-03T17:02:30;13.30;99.90
3994;DHT22;2011;48.238;13.948;2022-10-03T17:05:02;13.30;99.90
3994;DHT22;2011;48.238;13.948;2022-10-03T17:07:38;13.20;99.90
3994;DHT22;2011;48.238;13.948;2022-10-03T17:10:23;13.20;99.90
3994;DHT22;2011;48.238;13.948;2022-10-03T17:12:53;13.10;99.90
3994;DHT22;2011;48.238;13.948;2022-10-03T17:15:28;13.10;99.90
3994;DHT22;2011;48.238;13.948;2022-10-03T17:17:57;13.00;99.90
3994;DHT22;2011;48.238;13.948;2022-10-03T17:20:37;12.90;99.90
3994;DHT22;2011;48.238;13.948;2022-10-03T17:23:11;12.90;99.90
3994;DHT22;2011;48.238;13.948;2022-10-03T17:25:48;12.80;99.90
3994;DHT22;2011;48.238;13.948;2022-10-03T17:28:26;12.80;99.90
3994;DHT22;2011;48.238;13.948;2022-10-03T17:31:00;12.80;99.90
3994;DHT22;2011;48.238;13.948;2022-10-03T17:33:33;12.80;99.90
3994;DHT22;2011;48.238;13.948;2022-10-03T17:36:26;12.70;99.90
3994;DHT22;2011;48.238;13.948;2022-10-03T17:39:01;12.70;99.90
3994;DHT22;2011;48.238;13.948;2022-10-03T17:41:35;12.70;99.90
3994;DHT22;2011;48.238;13.948;2022-10-03T17:44:14;12.70;99.90
3994;DHT22;2011;48.238;13.948;2022-10-03T17:46:53;12.60;99.90
3994;DHT22;2011;48.238;13.948;2022-10-03T17:49:34;12.50;99.90
3994;DHT22;2011;48.238;13.948;2022-10-03T17:52:09;12.40;99.90
3994;DHT22;2011;48.238;13.948;2022-10-03T17:54:39;12.30;99.90
3994;DHT22;2011;48.238;13.948;2022-10-03T17:57:15;12.30;99.90
3994;DHT22;2011;48.238;13.948;2022-10-03T17:59:51;12.20;99.90
3994;DHT22;2011;48.238;13.948;2022-10-03T18:02:31;12.20;99.90
3994;DHT22;2011;48.238;13.948;2022-10-03T18:05:05;12.10;99.90
3994;DHT22;2011;48.238;13.948;2022-10-03T18:07:37;12.10;99.90
3994;DHT22;2011;48.238;13.948;2022-10-03T18:10:17;12.10;99.90
3994;DHT22;2011;48.238;13.948;2022-10-03T18:12:46;12.10;99.90
3994;DHT22;2011;48.238;13.948;2022-10-03T18:15:49;12.00;99.90
3994;DHT22;2011;48.238;13.948;2022-10-03T18:18:42;12.00;99.90
3994;DHT22;2011;48.238;13.948;2022-10-03T18:21:16;11.90;99.90
3994;DHT22;2011;48.238;13.948;2022-10-03T18:23:56;11.90;99.90
3994;DHT22;2011;48.238;13.948;2022-10-03T18:26:34;11.90;99.90
3994;DHT22;2011;48.238;13.948;2022-10-03T18:29:13;11.80;99.90
3994;DHT22;2011;48.238;13.948;2022-10-03T18:31:46;11.80;99.90
3994;DHT22;2011;48.238;13.948;2022-10-03T18:34:18;11.70;99.90
3994;DHT22;2011;48.238;13.948;2022-10-03T18:36:47;11.70;99.90
3994;DHT22;2011;48.238;13.948;2022-10-03T18:39:17;11.70;99.90
3994;DHT22;2011;48.238;13.948;2022-10-03T18:41:47;11.60;99.90
3994;DHT22;2011;48.238;13.948;2022-10-03T18:44:17;11.60;99.90
3994;DHT22;2011;48.238;13.948;2022-10-03T18:46:45;11.60;99.90
3994;DHT22;2011;48.238;13.948;2022-10-03T18:49:17;11.60;99.90
3994;DHT22;2011;48.238;13.948;2022-10-03T18:51:49;11.60;99.90
3994;DHT22;2011;48.238;13.948;2022-10-03T18:54:32;11.50;99.90
3994;DHT22;2011;48.238;13.948;2022-10-03T18:57:05;11.40;99.90
3994;DHT22;2011;48.238;13.948;2022-10-03T18:59:37;11.40;99.90
3994;DHT22;2011;48.238;13.948;2022-10-03T19:02:15;11.30;99.90
3994;DHT22;2011;48.238;13.948;2022-10-03T19:04:45;11.30;99.90
3994;DHT22;2011;48.238;13.948;2022-10-03T19:07:19;11.30;99.90
3994;DHT22;2011;48.238;13.948;2022-10-03T19:13:08;11.20;99.90
3994;DHT22;2011;48.238;13.948;2022-10-03T19:16:02;11.10;99.90
3994;DHT22;2011;48.238;13.948;2022-10-03T19:18:39;11.10;99.90
3994;DHT22;2011;48.238;13.948;2022-10-03T19:21:11;11.10;99.90
3994;DHT22;2011;48.238;13.948;2022-10-03T19:23:45;11.10;99.90
3994;DHT22;2011;48.238;13.948;2022-10-03T19:26:22;11.00;99.90
3994;DHT22;2011;48.238;13.948;2022-10-03T19:28:53;11.00;99.90
3994;DHT22;2011;48.238;13.948;2022-10-03T19:31:25;11.00;99.90
3994;DHT22;2011;48.238;13.948;2022-10-03T19:33:57;11.00;99.90
3994;DHT22;2011;48.238;13.948;2022-10-03T19:36:28;11.00;99.90
3994;DHT22;2011;48.238;13.948;2022-10-03T19:38:57;11.00;99.90
3994;DHT22;2011;48.238;13.948;2022-10-03T19:41:29;11.00;99.90
3994;DHT22;2011;48.238;13.948;2022-10-03T19:44:04;11.00;99.90
3994;DHT22;2011;48.238;13.948;2022-10-03T19:46:47;10.90;99.90
3994;DHT22;2011;48.238;13.948;2022-10-03T19:49:35;10.80;99.90
3994;DHT22;2011;48.238;13.948;2022-10-03T19:52:13;10.70;99.90
3994;DHT22;2011;48.238;13.948;2022-10-03T19:54:49;10.70;99.90
3994;DHT22;2011;48.238;13.948;2022-10-03T19:57:19;10.70;99.90
3994;DHT22;2011;48.238;13.948;2022-10-03T19:59:51;10.70;99.90
3994;DHT22;2011;48.238;13.948;2022-10-03T20:02:23;10.70;99.90